Terminal Aerodrome Forecast
Issued by NWS

Home | Current Version | Previous Version | Text Only | Print | Product List | Glossary On
Versions: 1 2 3 4 5 6 7 8 9 10 11 12 13 14 15 16 17 18 19 20
387
FTUS41 KCAR 051134
TAFFVE
TAF
KFVE 051134Z 0512/0612 28005KT P6SM BKN004
     FM051500 VRB03KT P6SM BKN015
     FM051800 VRB03KT P6SM BKN040
     FM052100 VRB03KT P6SM BKN025
     FM060400 VRB03KT P6SM BKN035=

USA.gov is the U.S. government's official web portal to all federal, state and local government web resources and services.